sensor_id;sensor_type;location;lat;lon;timestamp;P1;durP1;ratioP1;P2;durP2;ratioP2
44476;SDS011;30180;44.788;10.366;2023-06-22T00:00:35;9.70;;;6.30;;
44476;SDS011;30180;44.788;10.366;2023-06-22T00:03:03;9.65;;;5.85;;
44476;SDS011;30180;44.788;10.366;2023-06-22T00:05:31;8.70;;;5.95;;
44476;SDS011;30180;44.788;10.366;2023-06-22T00:08:02;8.88;;;5.50;;
44476;SDS011;30180;44.788;10.366;2023-06-22T00:10:32;10.77;;;5.78;;
44476;SDS011;30180;44.788;10.366;2023-06-22T00:13:00;9.88;;;5.95;;
44476;SDS011;30180;44.788;10.366;2023-06-22T00:15:28;8.25;;;5.45;;
44476;SDS011;30180;44.788;10.366;2023-06-22T00:17:57;10.15;;;6.20;;
44476;SDS011;30180;44.788;10.366;2023-06-22T00:20:25;9.25;;;5.97;;
44476;SDS011;30180;44.788;10.366;2023-06-22T00:22:56;8.55;;;5.63;;
44476;SDS011;30180;44.788;10.366;2023-06-22T00:25:27;9.82;;;5.68;;
44476;SDS011;30180;44.788;10.366;2023-06-22T00:27:55;8.85;;;5.38;;
44476;SDS011;30180;44.788;10.366;2023-06-22T00:30:24;9.93;;;6.00;;
44476;SDS011;30180;44.788;10.366;2023-06-22T00:32:52;8.70;;;5.60;;
44476;SDS011;30180;44.788;10.366;2023-06-22T00:35:21;9.27;;;5.85;;
44476;SDS011;30180;44.788;10.366;2023-06-22T00:37:49;8.20;;;5.57;;
44476;SDS011;30180;44.788;10.366;2023-06-22T00:40:23;10.75;;;6.28;;
44476;SDS011;30180;44.788;10.366;2023-06-22T00:42:54;8.98;;;5.45;;
44476;SDS011;30180;44.788;10.366;2023-06-22T00:45:22;6.90;;;5.35;;
44476;SDS011;30180;44.788;10.366;2023-06-22T00:47:51;8.50;;;5.50;;
44476;SDS011;30180;44.788;10.366;2023-06-22T00:50:21;9.23;;;5.20;;
44476;SDS011;30180;44.788;10.366;2023-06-22T00:52:52;6.80;;;4.97;;
44476;SDS011;30180;44.788;10.366;2023-06-22T00:55:23;8.02;;;5.60;;
44476;SDS011;30180;44.788;10.366;2023-06-22T00:57:53;9.10;;;5.97;;
44476;SDS011;30180;44.788;10.366;2023-06-22T01:00:23;8.88;;;5.90;;
44476;SDS011;30180;44.788;10.366;2023-06-22T01:02:52;8.75;;;5.70;;
44476;SDS011;30180;44.788;10.366;2023-06-22T01:05:21;8.32;;;5.65;;
44476;SDS011;30180;44.788;10.366;2023-06-22T01:07:59;8.30;;;5.18;;
44476;SDS011;30180;44.788;10.366;2023-06-22T01:10:35;7.50;;;5.45;;
44476;SDS011;30180;44.788;10.366;2023-06-22T01:13:11;8.68;;;5.70;;
44476;SDS011;30180;44.788;10.366;2023-06-22T01:15:46;8.32;;;4.95;;
44476;SDS011;30180;44.788;10.366;2023-06-22T01:18:20;9.20;;;5.68;;
44476;SDS011;30180;44.788;10.366;2023-06-22T01:20:52;9.00;;;5.40;;
44476;SDS011;30180;44.788;10.366;2023-06-22T01:23:26;8.32;;;5.40;;
44476;SDS011;30180;44.788;10.366;2023-06-22T01:26:04;8.48;;;5.75;;
44476;SDS011;30180;44.788;10.366;2023-06-22T01:31:13;7.72;;;5.20;;
44476;SDS011;30180;44.788;10.366;2023-06-22T01:33:44;9.43;;;5.68;;
44476;SDS011;30180;44.788;10.366;2023-06-22T01:36:16;6.70;;;5.07;;
44476;SDS011;30180;44.788;10.366;2023-06-22T01:38:44;9.15;;;5.38;;
44476;SDS011;30180;44.788;10.366;2023-06-22T01:41:14;9.77;;;5.47;;
44476;SDS011;30180;44.788;10.366;2023-06-22T01:43:45;8.57;;;5.88;;
44476;SDS011;30180;44.788;10.366;2023-06-22T01:46:14;7.70;;;5.22;;
44476;SDS011;30180;44.788;10.366;2023-06-22T01:48:46;9.65;;;5.28;;
44476;SDS011;30180;44.788;10.366;2023-06-22T01:51:14;8.38;;;5.07;;
44476;SDS011;30180;44.788;10.366;2023-06-22T01:53:44;7.63;;;5.03;;
44476;SDS011;30180;44.788;10.366;2023-06-22T01:56:14;8.60;;;5.38;;
44476;SDS011;30180;44.788;10.366;2023-06-22T01:58:48;7.53;;;5.13;;
44476;SDS011;30180;44.788;10.366;2023-06-22T02:01:22;10.15;;;5.13;;
44476;SDS011;30180;44.788;10.366;2023-06-22T02:03:57;10.32;;;5.80;;
44476;SDS011;30180;44.788;10.366;2023-06-22T02:06:37;7.65;;;4.97;;
44476;SDS011;30180;44.788;10.366;2023-06-22T02:09:09;8.45;;;5.32;;
44476;SDS011;30180;44.788;10.366;2023-06-22T02:11:40;7.95;;;5.05;;
44476;SDS011;30180;44.788;10.366;2023-06-22T02:14:12;8.30;;;5.40;;
44476;SDS011;30180;44.788;10.366;2023-06-22T02:16:43;7.45;;;5.40;;
44476;SDS011;30180;44.788;10.366;2023-06-22T02:19:12;8.70;;;5.22;;
44476;SDS011;30180;44.788;10.366;2023-06-22T02:21:44;7.70;;;5.22;;
44476;SDS011;30180;44.788;10.366;2023-06-22T02:24:13;7.05;;;5.15;;
44476;SDS011;30180;44.788;10.366;2023-06-22T02:26:41;7.00;;;5.20;;
44476;SDS011;30180;44.788;10.366;2023-06-22T02:29:13;8.02;;;5.13;;
44476;SDS011;30180;44.788;10.366;2023-06-22T02:31:41;7.30;;;5.50;;
44476;SDS011;30180;44.788;10.366;2023-06-22T02:34:10;8.07;;;5.47;;
44476;SDS011;30180;44.788;10.366;2023-06-22T02:36:44;7.22;;;4.82;;
44476;SDS011;30180;44.788;10.366;2023-06-22T02:39:18;8.27;;;5.20;;
44476;SDS011;30180;44.788;10.366;2023-06-22T02:41:49;8.85;;;5.22;;
44476;SDS011;30180;44.788;10.366;2023-06-22T02:44:19;8.00;;;5.65;;
44476;SDS011;30180;44.788;10.366;2023-06-22T02:46:48;6.68;;;5.00;;
44476;SDS011;30180;44.788;10.366;2023-06-22T02:49:16;7.50;;;5.35;;
44476;SDS011;30180;44.788;10.366;2023-06-22T02:51:45;7.00;;;5.20;;
44476;SDS011;30180;44.788;10.366;2023-06-22T02:54:15;9.83;;;5.47;;
44476;SDS011;30180;44.788;10.366;2023-06-22T02:56:44;7.70;;;5.00;;
44476;SDS011;30180;44.788;10.366;2023-06-22T02:59:12;7.45;;;5.15;;
44476;SDS011;30180;44.788;10.366;2023-06-22T03:01:42;8.55;;;4.90;;
44476;SDS011;30180;44.788;10.366;2023-06-22T03:04:10;8.07;;;5.07;;
44476;SDS011;30180;44.788;10.366;2023-06-22T03:06:38;7.25;;;4.97;;
44476;SDS011;30180;44.788;10.366;2023-06-22T03:09:07;6.53;;;4.70;;
44476;SDS011;30180;44.788;10.366;2023-06-22T03:11:35;8.05;;;5.05;;
44476;SDS011;30180;44.788;10.366;2023-06-22T03:14:04;7.53;;;4.82;;
44476;SDS011;30180;44.788;10.366;2023-06-22T03:16:32;7.18;;;4.60;;
44476;SDS011;30180;44.788;10.366;2023-06-22T03:19:02;6.40;;;4.85;;
44476;SDS011;30180;44.788;10.366;2023-06-22T03:21:30;7.78;;;5.72;;
44476;SDS011;30180;44.788;10.366;2023-06-22T03:23:59;7.47;;;5.32;;
44476;SDS011;30180;44.788;10.366;2023-06-22T03:26:27;7.53;;;4.93;;
44476;SDS011;30180;44.788;10.366;2023-06-22T03:28:56;7.88;;;5.13;;
44476;SDS011;30180;44.788;10.366;2023-06-22T03:31:24;7.45;;;4.90;;
44476;SDS011;30180;44.788;10.366;2023-06-22T03:33:53;7.30;;;4.63;;
44476;SDS011;30180;44.788;10.366;2023-06-22T03:36:23;6.90;;;4.82;;
44476;SDS011;30180;44.788;10.366;2023-06-22T03:38:52;7.68;;;5.22;;
44476;SDS011;30180;44.788;10.366;2023-06-22T03:41:20;7.43;;;5.10;;
44476;SDS011;30180;44.788;10.366;2023-06-22T03:43:48;6.78;;;5.18;;
44476;SDS011;30180;44.788;10.366;2023-06-22T03:46:17;6.57;;;4.85;;
44476;SDS011;30180;44.788;10.366;2023-06-22T03:48:46;6.53;;;4.95;;
44476;SDS011;30180;44.788;10.366;2023-06-22T03:51:14;6.53;;;4.55;;
44476;SDS011;30180;44.788;10.366;2023-06-22T03:53:44;8.25;;;5.18;;
44476;SDS011;30180;44.788;10.366;2023-06-22T03:56:12;8.00;;;5.10;;
44476;SDS011;30180;44.788;10.366;2023-06-22T03:58:46;7.15;;;4.85;;
44476;SDS011;30180;44.788;10.366;2023-06-22T04:01:14;6.65;;;4.82;;
44476;SDS011;30180;44.788;10.366;2023-06-22T04:03:43;7.45;;;5.15;;
44476;SDS011;30180;44.788;10.366;2023-06-22T04:06:14;7.53;;;5.18;;
44476;SDS011;30180;44.788;10.366;2023-06-22T04:08:44;8.75;;;4.70;;
44476;SDS011;30180;44.788;10.366;2023-06-22T04:11:14;6.95;;;5.00;;
44476;SDS011;30180;44.788;10.366;2023-06-22T04:13:42;5.85;;;4.70;;
44476;SDS011;30180;44.788;10.366;2023-06-22T04:16:11;7.13;;;4.63;;
44476;SDS011;30180;44.788;10.366;2023-06-22T04:18:39;7.63;;;5.05;;
44476;SDS011;30180;44.788;10.366;2023-06-22T04:21:08;6.18;;;4.40;;
44476;SDS011;30180;44.788;10.366;2023-06-22T04:23:37;6.80;;;4.72;;
44476;SDS011;30180;44.788;10.366;2023-06-22T04:26:07;6.78;;;5.03;;
44476;SDS011;30180;44.788;10.366;2023-06-22T04:28:35;8.57;;;5.00;;
44476;SDS011;30180;44.788;10.366;2023-06-22T04:31:04;6.93;;;4.57;;
44476;SDS011;30180;44.788;10.366;2023-06-22T04:33:32;7.28;;;4.57;;
44476;SDS011;30180;44.788;10.366;2023-06-22T04:36:01;6.72;;;4.70;;
44476;SDS011;30180;44.788;10.366;2023-06-22T04:38:30;5.20;;;3.97;;
44476;SDS011;30180;44.788;10.366;2023-06-22T04:40:59;6.85;;;4.88;;
44476;SDS011;30180;44.788;10.366;2023-06-22T04:43:31;6.35;;;4.90;;
44476;SDS011;30180;44.788;10.366;2023-06-22T04:46:01;8.38;;;5.20;;
44476;SDS011;30180;44.788;10.366;2023-06-22T04:48:30;8.70;;;5.72;;
44476;SDS011;30180;44.788;10.366;2023-06-22T04:50:59;17.33;;;7.85;;
44476;SDS011;30180;44.788;10.366;2023-06-22T04:56:00;67.18;;;19.75;;
44476;SDS011;30180;44.788;10.366;2023-06-22T05:01:00;65.90;;;22.00;;
44476;SDS011;30180;44.788;10.366;2023-06-22T05:03:30;62.78;;;20.23;;
44476;SDS011;30180;44.788;10.366;2023-06-22T05:05:59;51.53;;;18.42;;
44476;SDS011;30180;44.788;10.366;2023-06-22T05:08:27;41.47;;;16.95;;
44476;SDS011;30180;44.788;10.366;2023-06-22T05:10:56;52.85;;;16.85;;
44476;SDS011;30180;44.788;10.366;2023-06-22T05:13:32;51.00;;;16.65;;
44476;SDS011;30180;44.788;10.366;2023-06-22T05:16:01;37.50;;;15.03;;
44476;SDS011;30180;44.788;10.366;2023-06-22T05:18:29;34.95;;;14.13;;
44476;SDS011;30180;44.788;10.366;2023-06-22T05:20:59;36.10;;;13.60;;
44476;SDS011;30180;44.788;10.366;2023-06-22T05:23:27;37.22;;;13.75;;
44476;SDS011;30180;44.788;10.366;2023-06-22T05:25:56;29.13;;;12.40;;
44476;SDS011;30180;44.788;10.366;2023-06-22T05:28:25;28.35;;;11.32;;
44476;SDS011;30180;44.788;10.366;2023-06-22T05:30:54;27.10;;;11.52;;
44476;SDS011;30180;44.788;10.366;2023-06-22T05:33:23;27.57;;;11.17;;
44476;SDS011;30180;44.788;10.366;2023-06-22T05:35:51;28.90;;;11.20;;
44476;SDS011;30180;44.788;10.366;2023-06-22T05:38:19;24.42;;;10.60;;
44476;SDS011;30180;44.788;10.366;2023-06-22T05:40:48;26.65;;;11.95;;
44476;SDS011;30180;44.788;10.366;2023-06-22T05:43:16;21.95;;;10.57;;
44476;SDS011;30180;44.788;10.366;2023-06-22T05:45:45;27.95;;;11.10;;
44476;SDS011;30180;44.788;10.366;2023-06-22T05:48:14;27.80;;;11.68;;
44476;SDS011;30180;44.788;10.366;2023-06-22T05:50:43;27.20;;;10.70;;
44476;SDS011;30180;44.788;10.366;2023-06-22T05:53:11;27.85;;;11.32;;
44476;SDS011;30180;44.788;10.366;2023-06-22T05:55:39;23.63;;;10.25;;
44476;SDS011;30180;44.788;10.366;2023-06-22T05:58:08;25.02;;;10.65;;
44476;SDS011;30180;44.788;10.366;2023-06-22T06:00:37;21.77;;;10.00;;
44476;SDS011;30180;44.788;10.366;2023-06-22T06:03:06;23.77;;;10.25;;
44476;SDS011;30180;44.788;10.366;2023-06-22T06:05:36;23.20;;;9.88;;
44476;SDS011;30180;44.788;10.366;2023-06-22T06:08:05;20.42;;;9.55;;
44476;SDS011;30180;44.788;10.366;2023-06-22T06:10:34;21.20;;;8.90;;
44476;SDS011;30180;44.788;10.366;2023-06-22T06:13:03;19.25;;;9.38;;
44476;SDS011;30180;44.788;10.366;2023-06-22T06:15:31;18.00;;;9.10;;
44476;SDS011;30180;44.788;10.366;2023-06-22T06:18:02;17.70;;;8.90;;
44476;SDS011;30180;44.788;10.366;2023-06-22T06:20:32;22.65;;;9.90;;
44476;SDS011;30180;44.788;10.366;2023-06-22T06:23:02;20.83;;;9.63;;
44476;SDS011;30180;44.788;10.366;2023-06-22T06:25:30;18.67;;;10.13;;
44476;SDS011;30180;44.788;10.366;2023-06-22T06:27:59;21.25;;;9.45;;
44476;SDS011;30180;44.788;10.366;2023-06-22T06:30:27;16.48;;;8.95;;
44476;SDS011;30180;44.788;10.366;2023-06-22T06:32:56;18.65;;;9.45;;
44476;SDS011;30180;44.788;10.366;2023-06-22T06:35:25;17.40;;;9.43;;
44476;SDS011;30180;44.788;10.366;2023-06-22T06:37:54;19.95;;;9.43;;
44476;SDS011;30180;44.788;10.366;2023-06-22T06:40:24;16.50;;;9.15;;
44476;SDS011;30180;44.788;10.366;2023-06-22T06:42:53;23.25;;;9.20;;
44476;SDS011;30180;44.788;10.366;2023-06-22T06:45:22;18.40;;;8.73;;
44476;SDS011;30180;44.788;10.366;2023-06-22T06:47:51;16.25;;;8.95;;
44476;SDS011;30180;44.788;10.366;2023-06-22T06:50:20;20.02;;;9.80;;
44476;SDS011;30180;44.788;10.366;2023-06-22T06:52:49;19.30;;;9.60;;
44476;SDS011;30180;44.788;10.366;2023-06-22T06:55:17;14.85;;;8.55;;
44476;SDS011;30180;44.788;10.366;2023-06-22T06:57:48;16.23;;;8.70;;
44476;SDS011;30180;44.788;10.366;2023-06-22T07:00:17;16.02;;;8.95;;
44476;SDS011;30180;44.788;10.366;2023-06-22T07:02:46;15.40;;;8.75;;
44476;SDS011;30180;44.788;10.366;2023-06-22T07:05:15;14.98;;;8.40;;
44476;SDS011;30180;44.788;10.366;2023-06-22T07:07:44;18.40;;;8.88;;
44476;SDS011;30180;44.788;10.366;2023-06-22T07:10:12;17.83;;;8.45;;
44476;SDS011;30180;44.788;10.366;2023-06-22T07:12:42;16.80;;;8.80;;
44476;SDS011;30180;44.788;10.366;2023-06-22T07:15:12;18.00;;;8.45;;
44476;SDS011;30180;44.788;10.366;2023-06-22T07:17:41;15.10;;;8.30;;
44476;SDS011;30180;44.788;10.366;2023-06-22T07:20:10;14.90;;;8.45;;
44476;SDS011;30180;44.788;10.366;2023-06-22T07:22:39;17.23;;;8.27;;
44476;SDS011;30180;44.788;10.366;2023-06-22T07:25:09;16.45;;;8.40;;
44476;SDS011;30180;44.788;10.366;2023-06-22T07:27:43;13.82;;;8.38;;
44476;SDS011;30180;44.788;10.366;2023-06-22T07:30:14;17.02;;;8.40;;
44476;SDS011;30180;44.788;10.366;2023-06-22T07:32:43;12.70;;;8.20;;
44476;SDS011;30180;44.788;10.366;2023-06-22T07:35:11;15.68;;;8.20;;
44476;SDS011;30180;44.788;10.366;2023-06-22T07:37:40;15.30;;;7.80;;
44476;SDS011;30180;44.788;10.366;2023-06-22T07:40:08;13.38;;;7.82;;
44476;SDS011;30180;44.788;10.366;2023-06-22T07:42:37;22.10;;;8.85;;
44476;SDS011;30180;44.788;10.366;2023-06-22T07:45:06;14.65;;;8.27;;
44476;SDS011;30180;44.788;10.366;2023-06-22T07:47:37;19.10;;;8.30;;
44476;SDS011;30180;44.788;10.366;2023-06-22T07:50:06;15.53;;;8.37;;
44476;SDS011;30180;44.788;10.366;2023-06-22T07:52:34;16.00;;;8.50;;
44476;SDS011;30180;44.788;10.366;2023-06-22T07:55:03;15.43;;;8.05;;
44476;SDS011;30180;44.788;10.366;2023-06-22T07:57:32;14.98;;;8.10;;
44476;SDS011;30180;44.788;10.366;2023-06-22T08:00:01;13.65;;;8.32;;
44476;SDS011;30180;44.788;10.366;2023-06-22T08:02:39;14.38;;;7.97;;
44476;SDS011;30180;44.788;10.366;2023-06-22T08:05:08;14.77;;;7.75;;
44476;SDS011;30180;44.788;10.366;2023-06-22T08:07:40;14.30;;;8.32;;
44476;SDS011;30180;44.788;10.366;2023-06-22T08:10:13;15.25;;;8.55;;
44476;SDS011;30180;44.788;10.366;2023-06-22T08:12:42;12.25;;;7.10;;
44476;SDS011;30180;44.788;10.366;2023-06-22T08:15:11;12.60;;;7.80;;
44476;SDS011;30180;44.788;10.366;2023-06-22T08:17:41;14.10;;;7.50;;
44476;SDS011;30180;44.788;10.366;2023-06-22T08:20:10;15.77;;;8.03;;
44476;SDS011;30180;44.788;10.366;2023-06-22T08:22:39;14.07;;;7.93;;
44476;SDS011;30180;44.788;10.366;2023-06-22T08:25:08;14.93;;;7.65;;
44476;SDS011;30180;44.788;10.366;2023-06-22T08:27:37;12.88;;;8.20;;
44476;SDS011;30180;44.788;10.366;2023-06-22T08:30:06;12.48;;;8.18;;
44476;SDS011;30180;44.788;10.366;2023-06-22T08:32:35;12.38;;;8.15;;
44476;SDS011;30180;44.788;10.366;2023-06-22T08:35:06;12.27;;;7.22;;
44476;SDS011;30180;44.788;10.366;2023-06-22T08:37:36;13.13;;;7.85;;
44476;SDS011;30180;44.788;10.366;2023-06-22T08:40:06;14.23;;;7.60;;
44476;SDS011;30180;44.788;10.366;2023-06-22T08:42:37;14.15;;;7.35;;
44476;SDS011;30180;44.788;10.366;2023-06-22T08:45:08;13.32;;;8.20;;
44476;SDS011;30180;44.788;10.366;2023-06-22T08:47:37;14.32;;;7.95;;
44476;SDS011;30180;44.788;10.366;2023-06-22T08:50:10;13.67;;;7.17;;
44476;SDS011;30180;44.788;10.366;2023-06-22T08:52:40;14.98;;;8.10;;
44476;SDS011;30180;44.788;10.366;2023-06-22T08:55:09;14.27;;;7.45;;
44476;SDS011;30180;44.788;10.366;2023-06-22T08:57:38;11.15;;;7.20;;
44476;SDS011;30180;44.788;10.366;2023-06-22T09:00:07;14.43;;;7.85;;
44476;SDS011;30180;44.788;10.366;2023-06-22T09:02:44;13.07;;;7.50;;
44476;SDS011;30180;44.788;10.366;2023-06-22T09:05:14;13.95;;;8.05;;
44476;SDS011;30180;44.788;10.366;2023-06-22T09:07:43;11.65;;;6.80;;
44476;SDS011;30180;44.788;10.366;2023-06-22T09:10:12;11.88;;;7.18;;
44476;SDS011;30180;44.788;10.366;2023-06-22T09:12:41;11.32;;;6.75;;
44476;SDS011;30180;44.788;10.366;2023-06-22T09:15:09;12.05;;;6.95;;
44476;SDS011;30180;44.788;10.366;2023-06-22T09:17:45;14.02;;;7.80;;
44476;SDS011;30180;44.788;10.366;2023-06-22T09:20:15;12.27;;;7.03;;
44476;SDS011;30180;44.788;10.366;2023-06-22T09:22:44;12.27;;;7.10;;
44476;SDS011;30180;44.788;10.366;2023-06-22T09:25:13;11.55;;;7.70;;
44476;SDS011;30180;44.788;10.366;2023-06-22T09:27:41;10.65;;;6.30;;
44476;SDS011;30180;44.788;10.366;2023-06-22T09:30:10;10.13;;;6.80;;
44476;SDS011;30180;44.788;10.366;2023-06-22T09:32:38;11.77;;;6.50;;
44476;SDS011;30180;44.788;10.366;2023-06-22T09:35:07;11.40;;;6.55;;
44476;SDS011;30180;44.788;10.366;2023-06-22T09:37:38;13.38;;;7.05;;
44476;SDS011;30180;44.788;10.366;2023-06-22T09:40:08;8.77;;;6.30;;
44476;SDS011;30180;44.788;10.366;2023-06-22T09:42:37;10.50;;;6.63;;
44476;SDS011;30180;44.788;10.366;2023-06-22T09:45:06;11.05;;;7.00;;
44476;SDS011;30180;44.788;10.366;2023-06-22T09:47:35;12.50;;;6.40;;
44476;SDS011;30180;44.788;10.366;2023-06-22T09:50:04;12.57;;;7.05;;
44476;SDS011;30180;44.788;10.366;2023-06-22T09:52:33;12.57;;;6.93;;
44476;SDS011;30180;44.788;10.366;2023-06-22T09:55:15;10.48;;;7.00;;
44476;SDS011;30180;44.788;10.366;2023-06-22T09:57:43;14.50;;;7.13;;
44476;SDS011;30180;44.788;10.366;2023-06-22T10:00:12;11.68;;;6.78;;
44476;SDS011;30180;44.788;10.366;2023-06-22T10:02:42;10.23;;;6.53;;
44476;SDS011;30180;44.788;10.366;2023-06-22T10:05:11;10.50;;;6.75;;
44476;SDS011;30180;44.788;10.366;2023-06-22T10:07:39;9.95;;;6.63;;
44476;SDS011;30180;44.788;10.366;2023-06-22T10:10:10;9.18;;;5.65;;
44476;SDS011;30180;44.788;10.366;2023-06-22T10:12:45;12.15;;;6.72;;
44476;SDS011;30180;44.788;10.366;2023-06-22T10:15:14;11.23;;;6.53;;
44476;SDS011;30180;44.788;10.366;2023-06-22T10:17:43;8.90;;;5.97;;
44476;SDS011;30180;44.788;10.366;2023-06-22T10:20:12;10.23;;;6.55;;
44476;SDS011;30180;44.788;10.366;2023-06-22T10:22:41;9.45;;;6.22;;
44476;SDS011;30180;44.788;10.366;2023-06-22T10:25:10;10.15;;;6.47;;
44476;SDS011;30180;44.788;10.366;2023-06-22T10:27:40;11.00;;;6.20;;
44476;SDS011;30180;44.788;10.366;2023-06-22T10:30:10;10.30;;;6.70;;
44476;SDS011;30180;44.788;10.366;2023-06-22T10:32:40;9.30;;;6.28;;
44476;SDS011;30180;44.788;10.366;2023-06-22T10:35:10;10.18;;;6.30;;
44476;SDS011;30180;44.788;10.366;2023-06-22T10:37:40;9.20;;;6.82;;
44476;SDS011;30180;44.788;10.366;2023-06-22T10:40:10;10.25;;;6.82;;
44476;SDS011;30180;44.788;10.366;2023-06-22T10:42:39;9.77;;;6.57;;
44476;SDS011;30180;44.788;10.366;2023-06-22T10:45:09;9.57;;;6.73;;
44476;SDS011;30180;44.788;10.366;2023-06-22T10:47:38;9.65;;;6.45;;
44476;SDS011;30180;44.788;10.366;2023-06-22T10:50:09;9.15;;;6.43;;
44476;SDS011;30180;44.788;10.366;2023-06-22T10:52:37;10.40;;;6.35;;
44476;SDS011;30180;44.788;10.366;2023-06-22T10:55:06;9.35;;;6.38;;
44476;SDS011;30180;44.788;10.366;2023-06-22T10:57:35;9.35;;;6.15;;
44476;SDS011;30180;44.788;10.366;2023-06-22T11:00:07;8.93;;;6.35;;
44476;SDS011;30180;44.788;10.366;2023-06-22T11:02:37;10.55;;;6.55;;
44476;SDS011;30180;44.788;10.366;2023-06-22T11:05:06;9.60;;;6.18;;
44476;SDS011;30180;44.788;10.366;2023-06-22T11:07:35;9.40;;;6.32;;
44476;SDS011;30180;44.788;10.366;2023-06-22T11:10:04;9.18;;;6.65;;
44476;SDS011;30180;44.788;10.366;2023-06-22T11:12:33;10.55;;;6.88;;
44476;SDS011;30180;44.788;10.366;2023-06-22T11:15:02;11.40;;;6.53;;
44476;SDS011;30180;44.788;10.366;2023-06-22T11:17:32;8.77;;;6.18;;
44476;SDS011;30180;44.788;10.366;2023-06-22T11:20:00;13.35;;;6.95;;
44476;SDS011;30180;44.788;10.366;2023-06-22T11:22:31;9.57;;;6.57;;
44476;SDS011;30180;44.788;10.366;2023-06-22T11:25:00;8.90;;;6.32;;
44476;SDS011;30180;44.788;10.366;2023-06-22T11:27:28;10.00;;;6.28;;
44476;SDS011;30180;44.788;10.366;2023-06-22T11:29:57;9.25;;;6.35;;
44476;SDS011;30180;44.788;10.366;2023-06-22T11:32:25;9.13;;;6.18;;
44476;SDS011;30180;44.788;10.366;2023-06-22T11:34:55;9.32;;;6.20;;
44476;SDS011;30180;44.788;10.366;2023-06-22T11:37:23;11.38;;;6.15;;
44476;SDS011;30180;44.788;10.366;2023-06-22T11:39:52;8.93;;;6.32;;
44476;SDS011;30180;44.788;10.366;2023-06-22T11:42:32;8.85;;;5.93;;
44476;SDS011;30180;44.788;10.366;2023-06-22T11:45:01;9.27;;;6.32;;
44476;SDS011;30180;44.788;10.366;2023-06-22T11:47:31;10.17;;;6.90;;
44476;SDS011;30180;44.788;10.366;2023-06-22T11:50:01;9.10;;;6.10;;
44476;SDS011;30180;44.788;10.366;2023-06-22T11:52:30;9.23;;;6.50;;
44476;SDS011;30180;44.788;10.366;2023-06-22T11:54:58;10.85;;;6.68;;
44476;SDS011;30180;44.788;10.366;2023-06-22T11:57:29;9.35;;;6.13;;
44476;SDS011;30180;44.788;10.366;2023-06-22T11:59:57;9.88;;;6.28;;
44476;SDS011;30180;44.788;10.366;2023-06-22T12:02:26;10.23;;;6.70;;
44476;SDS011;30180;44.788;10.366;2023-06-22T12:04:54;8.25;;;5.60;;
44476;SDS011;30180;44.788;10.366;2023-06-22T12:07:26;8.90;;;6.67;;
44476;SDS011;30180;44.788;10.366;2023-06-22T12:09:54;10.90;;;6.38;;
44476;SDS011;30180;44.788;10.366;2023-06-22T12:12:22;9.35;;;5.82;;
44476;SDS011;30180;44.788;10.366;2023-06-22T12:14:51;10.63;;;6.78;;
44476;SDS011;30180;44.788;10.366;2023-06-22T12:17:19;9.55;;;6.38;;
44476;SDS011;30180;44.788;10.366;2023-06-22T12:19:48;10.93;;;6.50;;
44476;SDS011;30180;44.788;10.366;2023-06-22T12:22:16;9.27;;;6.53;;
44476;SDS011;30180;44.788;10.366;2023-06-22T12:24:46;11.20;;;6.50;;
44476;SDS011;30180;44.788;10.366;2023-06-22T12:27:14;9.20;;;6.07;;
44476;SDS011;30180;44.788;10.366;2023-06-22T12:29:45;11.83;;;6.67;;
44476;SDS011;30180;44.788;10.366;2023-06-22T12:32:13;11.45;;;6.43;;
44476;SDS011;30180;44.788;10.366;2023-06-22T12:34:42;10.68;;;6.88;;
44476;SDS011;30180;44.788;10.366;2023-06-22T12:37:11;9.05;;;6.72;;
44476;SDS011;30180;44.788;10.366;2023-06-22T12:39:40;9.27;;;6.68;;
44476;SDS011;30180;44.788;10.366;2023-06-22T12:42:10;8.20;;;6.15;;
44476;SDS011;30180;44.788;10.366;2023-06-22T12:44:39;9.82;;;6.45;;
44476;SDS011;30180;44.788;10.366;2023-06-22T12:47:07;9.68;;;6.55;;
44476;SDS011;30180;44.788;10.366;2023-06-22T12:49:36;9.68;;;6.25;;
44476;SDS011;30180;44.788;10.366;2023-06-22T12:52:08;10.32;;;6.18;;
44476;SDS011;30180;44.788;10.366;2023-06-22T12:54:37;10.07;;;6.43;;
44476;SDS011;30180;44.788;10.366;2023-06-22T12:57:21;11.52;;;7.13;;
44476;SDS011;30180;44.788;10.366;2023-06-22T12:59:50;9.60;;;7.03;;
44476;SDS011;30180;44.788;10.366;2023-06-22T13:02:18;8.40;;;6.43;;
44476;SDS011;30180;44.788;10.366;2023-06-22T13:04:47;9.57;;;6.35;;
44476;SDS011;30180;44.788;10.366;2023-06-22T13:07:15;9.95;;;7.05;;
44476;SDS011;30180;44.788;10.366;2023-06-22T13:09:49;12.55;;;6.85;;
44476;SDS011;30180;44.788;10.366;2023-06-22T13:12:19;23.37;;;6.50;;
44476;SDS011;30180;44.788;10.366;2023-06-22T13:14:49;10.38;;;6.30;;
44476;SDS011;30180;44.788;10.366;2023-06-22T13:17:18;10.60;;;6.63;;
44476;SDS011;30180;44.788;10.366;2023-06-22T13:19:46;14.68;;;7.25;;
44476;SDS011;30180;44.788;10.366;2023-06-22T13:22:28;11.35;;;6.35;;
44476;SDS011;30180;44.788;10.366;2023-06-22T13:24:58;14.73;;;7.45;;
44476;SDS011;30180;44.788;10.366;2023-06-22T13:27:28;9.00;;;6.47;;
44476;SDS011;30180;44.788;10.366;2023-06-22T13:29:58;16.17;;;7.75;;
44476;SDS011;30180;44.788;10.366;2023-06-22T13:32:27;16.52;;;7.90;;
44476;SDS011;30180;44.788;10.366;2023-06-22T13:34:55;11.18;;;7.32;;
44476;SDS011;30180;44.788;10.366;2023-06-22T13:37:25;12.48;;;6.78;;
44476;SDS011;30180;44.788;10.366;2023-06-22T13:39:54;9.55;;;6.55;;
44476;SDS011;30180;44.788;10.366;2023-06-22T13:42:23;10.95;;;6.57;;
44476;SDS011;30180;44.788;10.366;2023-06-22T13:44:52;13.18;;;6.60;;
44476;SDS011;30180;44.788;10.366;2023-06-22T13:47:21;10.65;;;7.30;;
44476;SDS011;30180;44.788;10.366;2023-06-22T13:49:50;11.83;;;7.70;;
44476;SDS011;30180;44.788;10.366;2023-06-22T13:52:18;10.73;;;6.88;;
44476;SDS011;30180;44.788;10.366;2023-06-22T13:54:47;12.45;;;7.10;;
44476;SDS011;30180;44.788;10.366;2023-06-22T13:57:15;13.43;;;7.00;;
44476;SDS011;30180;44.788;10.366;2023-06-22T13:59:44;12.32;;;6.75;;
44476;SDS011;30180;44.788;10.366;2023-06-22T14:02:12;11.27;;;6.43;;
44476;SDS011;30180;44.788;10.366;2023-06-22T14:04:42;11.65;;;7.22;;
44476;SDS011;30180;44.788;10.366;2023-06-22T14:07:11;9.50;;;6.60;;
44476;SDS011;30180;44.788;10.366;2023-06-22T14:09:39;10.63;;;6.63;;
44476;SDS011;30180;44.788;10.366;2023-06-22T14:12:08;10.40;;;7.05;;
44476;SDS011;30180;44.788;10.366;2023-06-22T14:14:37;11.32;;;6.78;;
44476;SDS011;30180;44.788;10.366;2023-06-22T14:17:06;9.07;;;6.15;;
44476;SDS011;30180;44.788;10.366;2023-06-22T14:19:34;11.63;;;7.13;;
44476;SDS011;30180;44.788;10.366;2023-06-22T14:22:04;11.55;;;7.03;;
44476;SDS011;30180;44.788;10.366;2023-06-22T14:24:33;13.27;;;6.55;;
44476;SDS011;30180;44.788;10.366;2023-06-22T14:27:02;9.85;;;6.68;;
44476;SDS011;30180;44.788;10.366;2023-06-22T14:29:34;11.05;;;6.95;;
44476;SDS011;30180;44.788;10.366;2023-06-22T14:32:02;11.65;;;6.95;;
44476;SDS011;30180;44.788;10.366;2023-06-22T14:34:32;9.38;;;6.40;;
44476;SDS011;30180;44.788;10.366;2023-06-22T14:37:02;11.75;;;7.15;;
44476;SDS011;30180;44.788;10.366;2023-06-22T14:39:33;10.98;;;7.07;;
44476;SDS011;30180;44.788;10.366;2023-06-22T14:42:01;11.07;;;6.85;;
44476;SDS011;30180;44.788;10.366;2023-06-22T14:44:30;9.73;;;7.05;;
44476;SDS011;30180;44.788;10.366;2023-06-22T14:46:58;10.32;;;7.32;;